Eolia, Kentucky
Current Conditions -  °F | °C
As of 9:35 PM on Sunday 21 Dec 2014 (Local Time) from KLNP Reporting Station
Clear Clear  
Wind Chill: 39°   Ceiling: Unl
Heat Index: 39°   Visibility: 10mi
Dew Point: 32°   Wind: 3mph
Humidity: 75%   Direction: 160°SSE
Pressure: 30.09"   Gusts: NA
Location:  37.05°N, 82.79°W
Report Text: KLNP 220235Z AUTO 16003KT 10SM CLR 04/00 A3009 RMK AO2
Loading
Personal Weather Stations






























Interactive Weather Map New forecast layout! Learn more

10-Day Weather Forecast

Advertisements
Track Severe Weather on mobile